Time;durP1;ratioP1;P1;durP2;ratioP2;P2;SDS_P1;SDS_P2;PMS_P1;PMS_P2;Temp;Humidity;BMP_temperature;BMP_pressure;BME280_temperature;BME280_humidity;BME280_pressure;Samples;Min_cycle;Max_cycle;Signal;HPM_P1;HPM_P2
2022/03/06 00:01:30;;;;;;;5.30;3.10;;;;;;;-0.76;74.58;100080.25;109385;1274;22467;-56
2022/03/06 00:03:58;;;;;;;4.80;2.80;;;;;;;-0.72;74.89;100078.89;109374;1274;22605;-56
2022/03/06 00:06:26;;;;;;;5.00;2.70;;;;;;;-0.67;74.84;100081.95;106927;1277;137544;-56
2022/03/06 00:08:54;;;;;;;5.80;3.00;;;;;;;-0.64;74.36;100083.02;104925;1277;22583;-56
2022/03/06 00:11:44;;;;;;;3.20;2.00;;;;;;;-0.64;74.10;100078.87;109208;1274;137823;-56
2022/03/06 00:14:13;;;;;;;3.50;2.10;;;;;;;-0.66;73.65;100079.27;109369;1274;22455;-56
2022/03/06 00:16:41;;;;;;;4.50;2.20;;;;;;;-0.69;73.40;100076.23;109236;1274;138623;-56
2022/03/06 00:19:09;;;;;;;5.70;2.40;;;;;;;-0.70;73.26;100076.03;109456;1274;22411;-56
2022/03/06 00:21:38;;;;;;;3.60;1.80;;;;;;;-0.72;73.23;100074.94;109326;1274;23380;-56
2022/03/06 00:24:06;;;;;;;3.50;1.80;;;;;;;-0.73;72.93;100066.48;109300;1274;138795;-57
2022/03/06 00:26:35;;;;;;;2.90;1.60;;;;;;;-0.74;72.46;100066.06;109242;1276;22514;-56
2022/03/06 00:29:03;;;;;;;3.60;1.80;;;;;;;-0.77;72.58;100070.88;109143;1274;138201;-56
2022/03/06 00:31:32;;;;;;;3.20;1.50;;;;;;;-0.76;72.72;100072.02;109261;1274;22475;-56
2022/03/06 00:34:01;;;;;;;1.70;1.60;;;;;;;-0.73;72.58;100073.19;109262;1276;22654;-56
2022/03/06 00:36:29;;;;;;;3.60;1.70;;;;;;;-0.73;72.41;100077.77;109308;1274;138990;-57
2022/03/06 00:38:57;;;;;;;2.20;1.70;;;;;;;-0.73;72.11;100074.55;109404;1274;22672;-56
2022/03/06 00:41:25;;;;;;;2.00;1.60;;;;;;;-0.73;72.01;100068.27;109323;1274;137144;-56
2022/03/06 00:43:53;;;;;;;2.20;1.70;;;;;;;-0.71;72.11;100072.48;109446;1274;22431;-56
2022/03/06 00:46:21;;;;;;;3.30;2.20;;;;;;;-0.69;71.78;100071.09;109413;1274;22453;-57
2022/03/06 00:48:49;;;;;;;2.70;1.90;;;;;;;-0.68;71.66;100072.61;109312;1274;137092;-56
2022/03/06 00:51:18;;;;;;;2.20;1.60;;;;;;;-0.68;71.86;100071.55;109348;1274;22418;-56
2022/03/06 00:53:46;;;;;;;2.50;1.70;;;;;;;-0.69;71.67;100069.52;109282;1274;138162;-56
2022/03/06 00:56:14;;;;;;;3.00;2.10;;;;;;;-0.72;71.15;100070.02;109396;1274;22653;-57
2022/03/06 00:58:43;;;;;;;3.90;2.40;;;;;;;-0.76;71.49;100078.52;109282;1274;138057;-56
2022/03/06 01:01:11;;;;;;;3.30;2.10;;;;;;;-0.78;71.27;100079.48;109357;1274;22651;-56
2022/03/06 01:03:40;;;;;;;3.10;2.30;;;;;;;-0.82;71.02;100083.23;109382;1274;22567;-56
2022/03/06 01:06:08;;;;;;;3.90;2.40;;;;;;;-0.84;70.93;100082.80;109332;1274;137390;-56
2022/03/06 01:08:36;;;;;;;3.20;2.10;;;;;;;-0.86;70.97;100082.33;109414;1274;22440;-56
2022/03/06 01:11:05;;;;;;;4.90;2.30;;;;;;;-0.89;70.95;100079.18;109191;1274;137734;-56
2022/03/06 01:13:42;;;;;;;6.30;2.20;;;;;;;-0.89;71.05;100083.55;109323;1274;22549;-56
2022/03/06 01:16:10;;;;;;;4.60;2.30;;;;;;;-0.89;70.73;100082.83;109431;1274;22465;-56
2022/03/06 01:18:38;;;;;;;2.60;2.10;;;;;;;-0.90;70.92;100085.60;109320;1274;138100;-56
2022/03/06 01:21:07;;;;;;;3.20;1.70;;;;;;;-0.90;70.89;100089.67;109283;1274;22316;-56
2022/03/06 01:23:35;;;;;;;4.00;2.10;;;;;;;-0.88;70.96;100085.96;109160;1274;140362;-56
2022/03/06 01:26:03;;;;;;;2.70;1.90;;;;;;;-0.88;71.01;100089.35;109408;1274;22449;-56
2022/03/06 01:28:33;;;;;;;3.10;1.90;;;;;;;-0.87;70.76;100088.80;109270;1274;137551;-56
2022/03/06 01:31:01;;;;;;;5.30;2.20;;;;;;;-0.86;70.69;100087.48;109414;1274;22417;-56
2022/03/06 01:33:29;;;;;;;3.10;2.00;;;;;;;-0.84;70.55;100090.08;109353;1273;22620;-56
2022/03/06 01:35:57;;;;;;;3.90;2.60;;;;;;;-0.84;70.56;100090.81;109207;1274;138145;-56
2022/03/06 01:38:26;;;;;;;4.20;2.40;;;;;;;-0.83;70.51;100086.07;109411;1274;22432;-56
2022/03/06 01:40:54;;;;;;;4.80;2.70;;;;;;;-0.83;70.49;100085.16;109277;1274;137748;-57
2022/03/06 01:43:22;;;;;;;4.50;2.60;;;;;;;-0.83;70.22;100086.60;109371;1274;22774;-56
2022/03/06 01:45:51;;;;;;;3.30;2.20;;;;;;;-0.82;70.43;100088.23;109424;1274;23408;-56
2022/03/06 01:48:19;;;;;;;3.70;2.10;;;;;;;-0.81;70.29;100090.68;109299;1274;138206;-57
2022/03/06 01:50:47;;;;;;;3.40;2.40;;;;;;;-0.84;70.54;100087.10;109422;1273;22514;-57
2022/03/06 01:53:16;;;;;;;3.60;2.30;;;;;;;-0.88;70.63;100087.47;109241;1274;137454;-57
2022/03/06 01:55:44;;;;;;;3.80;2.40;;;;;;;-0.92;70.98;100087.94;109373;1273;23410;-57
2022/03/06 01:58:12;;;;;;;3.90;2.40;;;;;;;-0.97;70.94;100087.73;109253;1274;22440;-57
2022/03/06 02:00:44;;;;;;;3.60;2.00;;;;;;;-1.00;71.21;100088.35;109163;1275;137625;-56
2022/03/06 02:03:14;;;;;;;4.90;2.60;;;;;;;-1.07;71.07;100088.56;109406;1274;22458;-56
2022/03/06 02:05:44;;;;;;;4.30;2.30;;;;;;;-1.12;71.38;100090.84;109258;1274;138954;-56
2022/03/06 02:08:12;;;;;;;3.60;2.10;;;;;;;-1.12;71.51;100090.14;109368;1274;23297;-56
2022/03/06 02:10:40;;;;;;;4.00;2.60;;;;;;;-1.11;71.52;100091.34;109271;1274;139109;-56
2022/03/06 02:13:08;;;;;;;3.90;2.60;;;;;;;-1.10;71.99;100090.14;109359;1274;22440;-56
2022/03/06 02:15:36;;;;;;;4.30;2.70;;;;;;;-1.10;71.78;100092.91;109324;1274;22597;-57
2022/03/06 02:18:04;;;;;;;4.00;2.60;;;;;;;-1.09;71.84;100083.38;109321;1274;138080;-57
2022/03/06 02:20:33;;;;;;;4.40;2.60;;;;;;;-1.12;71.64;100075.00;109347;1274;22614;-56
2022/03/06 02:23:01;;;;;;;6.50;3.20;;;;;;;-1.08;71.53;100082.58;109222;1274;139128;-56
2022/03/06 02:25:31;;;;;;;4.40;2.70;;;;;;;-1.09;71.28;100078.27;109412;1274;22400;-56
2022/03/06 02:28:06;;;;;;;5.10;2.60;;;;;;;-1.05;71.24;100086.09;109366;1273;22441;-56
2022/03/06 02:30:36;;;;;;;6.20;3.00;;;;;;;-1.05;71.18;100084.95;109261;1274;139435;-57
2022/03/06 02:33:05;;;;;;;5.30;3.20;;;;;;;-1.05;71.23;100080.55;109389;1273;22640;-56
2022/03/06 02:35:35;;;;;;;6.60;3.60;;;;;;;-1.07;71.15;100085.83;109297;1274;137498;-57
2022/03/06 02:38:03;;;;;;;7.40;3.70;;;;;;;-1.09;71.00;100092.14;109340;1274;22444;-56
2022/03/06 02:40:37;;;;;;;7.60;3.80;;;;;;;-1.12;70.97;100094.02;109247;1273;138464;-56
2022/03/06 02:43:05;;;;;;;7.00;3.80;;;;;;;-1.13;70.86;100096.81;109389;1274;22416;-55
2022/03/06 02:45:34;;;;;;;7.60;4.00;;;;;;;-1.14;70.97;100102.79;108590;1274;23301;-55
2022/03/06 02:48:02;;;;;;;5.90;3.30;;;;;;;-1.15;70.94;100108.55;104930;1274;138504;-55
2022/03/06 02:50:33;;;;;;;7.20;3.80;;;;;;;-1.20;70.91;100114.18;109410;1273;23583;-55
2022/03/06 02:53:04;;;;;;;4.80;3.60;;;;;;;-1.24;71.04;100109.99;109267;1274;137479;-55
2022/03/06 02:55:32;;;;;;;7.00;3.50;;;;;;;-1.29;71.13;100112.73;109325;1274;22628;-55
2022/03/06 02:58:00;;;;;;;4.80;3.40;;;;;;;-1.36;71.41;100118.83;109409;1274;22527;-55
2022/03/06 03:00:28;;;;;;;6.50;4.50;;;;;;;-1.42;71.41;100117.11;109262;1274;139012;-56
2022/03/06 03:02:56;;;;;;;4.90;3.40;;;;;;;-1.46;71.65;100117.42;109395;1274;22480;-55
2022/03/06 03:05:26;;;;;;;6.80;3.40;;;;;;;-1.47;72.01;100114.39;109325;1274;138974;-55
2022/03/06 03:07:55;;;;;;;5.40;2.70;;;;;;;-1.48;72.23;100113.21;109399;1274;23314;-55
2022/03/06 03:10:24;;;;;;;4.60;2.90;;;;;;;-1.50;72.15;100110.20;109362;1274;22542;-55
2022/03/06 03:12:52;;;;;;;5.10;3.20;;;;;;;-1.49;72.38;100114.04;109286;1274;138971;-56
2022/03/06 03:15:21;;;;;;;6.10;3.50;;;;;;;-1.51;72.56;100112.10;109433;1273;22269;-55
2022/03/06 03:17:49;;;;;;;11.60;3.90;;;;;;;-1.47;72.54;100117.95;109259;1274;138275;-56
2022/03/06 03:20:18;;;;;;;4.80;3.00;;;;;;;-1.45;72.47;100112.02;109406;1273;22548;-56
2022/03/06 03:22:46;;;;;;;6.40;3.30;;;;;;;-1.45;72.46;100112.67;109086;1276;138054;-56
2022/03/06 03:25:14;;;;;;;5.20;3.30;;;;;;;-1.45;72.43;100109.80;109364;1274;22636;-56
2022/03/06 03:27:43;;;;;;;5.40;3.40;;;;;;;-1.44;72.55;100111.86;109380;1274;22489;-55
2022/03/06 03:30:11;;;;;;;5.60;3.70;;;;;;;-1.45;72.47;100108.73;109289;1274;138471;-55
2022/03/06 03:32:39;;;;;;;6.30;2.70;;;;;;;-1.47;72.49;100111.17;109354;1274;22369;-55
2022/03/06 03:35:08;;;;;;;4.80;2.80;;;;;;;-1.49;72.38;100113.48;109259;1274;139671;-56
2022/03/06 03:37:36;;;;;;;5.50;3.20;;;;;;;-1.51;72.43;100118.52;109411;1274;22436;-55
2022/03/06 03:40:06;;;;;;;6.30;3.20;;;;;;;-1.51;72.28;100119.02;109372;1274;23620;-55
2022/03/06 03:45:04;;;;;;;4.10;2.90;;;;;;;-1.46;72.16;100121.13;101656;1312;545913;-56
2022/03/06 03:47:33;;;;;;;5.40;2.90;;;;;;;-1.49;72.25;100117.02;108121;1285;137073;-56
2022/03/06 03:50:02;;;;;;;7.00;3.00;;;;;;;-1.52;72.29;100117.55;108090;1288;22466;-57
2022/03/06 03:52:30;;;;;;;4.40;2.90;;;;;;;-1.54;72.16;100111.70;107759;1289;137945;-57
2022/03/06 03:54:58;;;;;;;5.70;3.00;;;;;;;-1.52;72.19;100111.83;108373;1283;22429;-56
2022/03/06 03:57:26;;;;;;;5.30;2.60;;;;;;;-1.52;72.43;100111.63;108358;1286;22531;-57
2022/03/06 03:59:55;;;;;;;4.50;2.60;;;;;;;-1.53;72.35;100115.30;108255;1281;143857;-56
2022/03/06 04:02:23;;;;;;;4.40;2.90;;;;;;;-1.54;72.27;100119.01;108452;1283;22428;-57
2022/03/06 04:04:53;;;;;;;4.30;2.30;;;;;;;-1.54;72.36;100119.04;108381;1283;138150;-57
2022/03/06 04:07:22;;;;;;;6.30;3.00;;;;;;;-1.52;72.50;100119.01;108497;1283;23849;-56
2022/03/06 04:09:51;;;;;;;5.20;3.00;;;;;;;-1.50;72.33;100119.45;108556;1283;22405;-56
2022/03/06 04:12:19;;;;;;;3.80;2.30;;;;;;;-1.47;72.33;100122.40;108335;1284;138002;-57
2022/03/06 04:14:49;;;;;;;3.50;2.30;;;;;;;-1.45;72.17;100126.91;108403;1284;22471;-56
2022/03/06 04:17:18;;;;;;;4.50;2.50;;;;;;;-1.42;72.39;100128.77;108340;1283;137660;-57
2022/03/06 04:19:47;;;;;;;3.80;2.50;;;;;;;-1.39;72.34;100129.88;108428;1284;22418;-56
2022/03/06 04:22:15;;;;;;;5.80;2.90;;;;;;;-1.37;72.35;100133.79;108418;1283;22402;-56
2022/03/06 04:24:44;;;;;;;4.00;2.40;;;;;;;-1.35;72.53;100135.66;108246;1284;136874;-57
2022/03/06 04:27:13;;;;;;;4.10;2.50;;;;;;;-1.34;72.41;100137.04;108493;1283;22695;-57
2022/03/06 04:29:43;;;;;;;5.60;3.30;;;;;;;-1.35;72.15;100139.27;108898;1279;138682;-56
2022/03/06 04:32:12;;;;;;;5.00;2.50;;;;;;;-1.37;72.15;100139.04;109037;1278;22537;-57
2022/03/06 04:34:42;;;;;;;4.60;2.90;;;;;;;-1.37;72.29;100140.17;108856;1280;137594;-57
2022/03/06 04:37:11;;;;;;;3.50;2.30;;;;;;;-1.37;72.17;100140.50;109044;1279;22580;-57
2022/03/06 04:39:40;;;;;;;3.00;2.20;;;;;;;-1.37;72.00;100145.31;108976;1280;22407;-57
2022/03/06 04:42:13;;;;;;;3.50;2.50;;;;;;;-1.37;71.73;100147.29;108886;1279;136817;-57
2022/03/06 04:44:42;;;;;;;3.50;2.30;;;;;;;-1.37;71.76;100148.59;109012;1278;22421;-56
2022/03/06 04:47:12;;;;;;;3.90;2.30;;;;;;;-1.36;71.62;100150.79;108855;1278;137652;-57
2022/03/06 04:49:41;;;;;;;4.40;2.70;;;;;;;-1.35;71.66;100151.00;108958;1279;22550;-57
2022/03/06 04:52:13;;;;;;;6.00;3.00;;;;;;;-1.34;71.62;100152.48;108956;1279;23273;-56
2022/03/06 04:54:43;;;;;;;6.40;3.00;;;;;;;-1.31;71.54;100153.25;108757;1279;137628;-56
2022/03/06 04:57:14;;;;;;;5.10;2.40;;;;;;;-1.29;71.38;100153.50;104920;1282;22635;-56
2022/03/06 04:59:43;;;;;;;4.90;2.50;;;;;;;-1.27;71.21;100152.12;108626;1281;139794;-57
2022/03/06 05:02:13;;;;;;;4.10;2.70;;;;;;;-1.26;71.01;100156.27;108751;1280;22406;-56
2022/03/06 05:04:42;;;;;;;3.70;2.50;;;;;;;-1.25;70.80;100157.14;108697;1279;138552;-57
2022/03/06 05:07:12;;;;;;;6.50;3.00;;;;;;;-1.25;70.36;100154.20;108810;1281;22771;-57
2022/03/06 05:09:44;;;;;;;6.50;2.80;;;;;;;-1.24;70.22;100159.77;108800;1281;22437;-56
2022/03/06 05:12:13;;;;;;;7.00;3.10;;;;;;;-1.23;69.88;100155.67;108798;1279;138690;-57
2022/03/06 05:14:55;;;;;;;4.20;2.60;;;;;;;-1.21;69.45;100157.28;109022;1279;22577;-56
2022/03/06 05:17:38;;;;;;;4.40;2.70;;;;;;;-1.21;68.93;100154.38;108879;1277;137959;-57
2022/03/06 05:20:10;;;;;;;3.60;2.50;;;;;;;-1.21;68.87;100151.57;108506;1280;22421;-57
2022/03/06 05:22:40;;;;;;;2.60;1.90;;;;;;;-1.21;68.65;100151.70;108891;1279;138230;-57
2022/03/06 05:25:10;;;;;;;3.90;2.20;;;;;;;-1.20;68.45;100156.08;108731;1281;22599;-55
2022/03/06 05:27:45;;;;;;;4.30;2.00;;;;;;;-1.18;68.52;100156.66;108716;1281;22503;-57
2022/03/06 05:30:15;;;;;;;2.90;2.20;;;;;;;-1.16;68.58;100157.45;108864;1280;136861;-56
2022/03/06 05:32:44;;;;;;;4.70;2.70;;;;;;;-1.13;68.39;100160.71;109026;1279;23439;-57
2022/03/06 05:35:22;;;;;;;6.30;3.80;;;;;;;-1.11;68.63;100154.73;108841;1279;137178;-57
2022/03/06 05:37:52;;;;;;;5.70;3.80;;;;;;;-1.09;68.34;100153.41;108498;1281;22526;-57
2022/03/06 05:40:24;;;;;;;5.30;2.70;;;;;;;-1.09;68.49;100153.15;108847;1280;22431;-56
2022/03/06 05:42:56;;;;;;;4.40;2.40;;;;;;;-1.08;68.47;100157.75;108854;1280;136757;-56
2022/03/06 05:45:28;;;;;;;4.20;2.50;;;;;;;-1.08;68.36;100155.52;109003;1277;23291;-57
2022/03/06 05:48:04;;;;;;;3.70;2.50;;;;;;;-1.07;68.32;100156.63;108882;1278;136952;-57
2022/03/06 05:50:34;;;;;;;3.80;2.30;;;;;;;-1.03;68.32;100160.70;109031;1279;22607;-56
2022/03/06 05:53:11;;;;;;;4.10;2.80;;;;;;;-1.01;68.12;100158.92;108849;1280;137608;-57
2022/03/06 05:55:51;;;;;;;4.40;2.30;;;;;;;-1.00;67.83;100154.50;108989;1279;22543;-56
2022/03/06 05:58:28;;;;;;;;;;;;;;;-0.99;67.87;100158.67;108619;1279;23345;-56
2022/03/06 06:00:58;;;;;;;3.90;2.20;;;;;;;-0.99;67.78;100156.87;108622;1280;125412;-57
2022/03/06 06:03:28;;;;;;;6.10;2.40;;;;;;;-0.99;67.47;100156.96;108657;1281;22675;-56
2022/03/06 06:06:08;;;;;;;5.80;2.80;;;;;;;-0.97;67.76;100160.71;108534;1281;137862;-56
2022/03/06 06:08:44;;;;;;;5.30;3.50;;;;;;;-0.95;67.74;100157.34;108602;1281;23879;-56
2022/03/06 06:11:23;;;;;;;3.80;2.40;;;;;;;-0.95;68.00;100160.65;108601;1281;138688;-56
2022/03/06 06:13:56;;;;;;;3.70;2.70;;;;;;;-0.93;67.95;100164.73;108605;1281;22466;-56
2022/03/06 06:16:43;;;;;;;5.50;2.50;;;;;;;-0.91;67.98;100161.99;108480;1281;138195;-57
2022/03/06 06:19:37;;;;;;;5.60;3.00;;;;;;;-0.88;68.10;100162.02;108707;1281;22511;-57
2022/03/06 06:22:09;;;;;;;5.60;3.20;;;;;;;-0.86;67.87;100168.76;108688;1281;23307;-57
2022/03/06 06:24:50;;;;;;;4.10;2.80;;;;;;;-0.86;67.73;100166.79;108565;1281;138145;-56
2022/03/06 06:27:27;;;;;;;6.10;3.00;;;;;;;-0.88;67.70;100159.70;108352;1282;23611;-56
2022/03/06 06:29:57;;;;;;;5.50;2.80;;;;;;;-0.83;67.43;100162.60;108601;1281;138200;-57
2022/03/06 06:32:35;;;;;;;4.70;2.80;;;;;;;-0.83;67.15;100168.03;108515;1279;22623;-56
2022/03/06 06:35:09;;;;;;;3.20;2.30;;;;;;;-0.83;67.42;100167.33;108872;1279;138199;-56
2022/03/06 06:37:48;;;;;;;3.40;2.50;;;;;;;-0.83;67.07;100168.55;108694;1281;23794;-56
2022/03/06 06:40:25;;;;;;;4.80;2.70;;;;;;;-0.81;66.59;100170.14;108996;1279;22500;-56
2022/03/06 06:43:04;;;;;;;4.80;2.40;;;;;;;-0.80;66.75;100170.38;108718;1279;138500;-56
2022/03/06 06:45:37;;;;;;;3.40;2.00;;;;;;;-0.79;66.67;100172.14;108813;1279;22478;-56
2022/03/06 06:48:12;;;;;;;4.10;2.20;;;;;;;-0.79;66.92;100173.38;108667;1280;138983;-56
2022/03/06 06:50:48;;;;;;;3.90;2.40;;;;;;;-0.78;67.01;100172.74;109018;1280;23400;-56
2022/03/06 06:53:18;;;;;;;5.60;2.50;;;;;;;-0.77;67.01;100175.05;108825;1279;138009;-56
2022/03/06 06:55:58;;;;;;;3.60;2.20;;;;;;;-0.77;66.51;100175.02;108644;1281;22588;-56
2022/03/06 06:58:27;;;;;;;3.30;2.10;;;;;;;-0.76;66.51;100175.89;108534;1280;22512;-56
2022/03/06 07:01:19;;;;;;;3.70;2.10;;;;;;;-0.76;66.25;100176.90;108828;1280;138551;-56
2022/03/06 07:03:56;;;;;;;3.30;2.30;;;;;;;-0.76;66.21;100179.27;108678;1280;23552;-55
2022/03/06 07:06:31;;;;;;;3.40;2.00;;;;;;;-0.76;66.12;100180.54;106574;1279;137505;-55
2022/03/06 07:09:04;;;;;;;2.70;2.00;;;;;;;-0.75;66.04;100170.57;108997;1279;22426;-56
2022/03/06 07:11:45;;;;;;;3.20;2.30;;;;;;;-0.75;65.58;100175.76;108877;1280;137281;-56
2022/03/06 07:14:18;;;;;;;2.60;2.00;;;;;;;-0.75;65.47;100176.83;108904;1280;22475;-55
2022/03/06 07:16:54;;;;;;;4.00;2.20;;;;;;;-0.72;65.66;100174.20;109059;1279;22287;-56
2022/03/06 07:19:34;;;;;;;4.90;2.50;;;;;;;-0.68;65.47;100172.90;108830;1279;137098;-56
2022/03/06 07:22:06;;;;;;;5.70;2.30;;;;;;;-0.64;65.28;100172.59;108687;1281;24118;-56
2022/03/06 07:24:50;;;;;;;7.40;3.50;;;;;;;-0.63;64.93;100168.34;108734;1280;137094;-56
2022/03/06 07:27:28;;;;;;;7.30;4.00;;;;;;;-0.60;64.79;100163.27;109015;1279;22411;-56
2022/03/06 07:30:01;;;;;;;6.90;4.00;;;;;;;-0.60;65.03;100159.65;108860;1279;137751;-56
2022/03/06 07:32:31;;;;;;;5.50;3.20;;;;;;;-0.57;64.87;100159.33;108964;1279;23467;-56
2022/03/06 07:35:10;;;;;;;6.30;3.20;;;;;;;-0.54;64.51;100160.55;108774;1279;138006;-57
2022/03/06 07:37:42;;;;;;;4.80;2.80;;;;;;;-0.51;64.72;100159.11;108815;1280;23567;-57
2022/03/06 07:40:24;;;;;;;3.50;2.20;;;;;;;-0.47;64.66;100161.59;108723;1278;22410;-57
2022/03/06 07:42:59;;;;;;;5.70;3.30;;;;;;;-0.45;64.28;100162.26;108819;1279;137169;-57
2022/03/06 07:45:33;;;;;;;4.90;3.20;;;;;;;-0.46;64.15;100162.52;109013;1279;22430;-56
2022/03/06 07:48:08;;;;;;;5.60;3.40;;;;;;;-0.46;64.12;100163.73;108575;1281;137811;-56
2022/03/06 07:50:43;;;;;;;4.10;3.00;;;;;;;-0.45;64.06;100162.36;108815;1279;23614;-57
2022/03/06 07:53:17;;;;;;;4.90;3.30;;;;;;;-0.43;64.30;100159.15;108765;1279;137586;-57
2022/03/06 07:55:53;;;;;;;5.30;3.30;;;;;;;-0.42;64.37;100160.02;108852;1280;22479;-57
2022/03/06 07:58:29;;;;;;;5.40;3.30;;;;;;;-0.34;65.02;100157.46;108624;1280;22507;-56
2022/03/06 08:00:59;;;;;;;6.00;3.90;;;;;;;-0.26;65.08;100159.04;108849;1280;137897;-57
2022/03/06 08:03:28;;;;;;;9.60;5.90;;;;;;;-0.20;65.66;100156.88;108711;1280;22335;-57
2022/03/06 08:06:15;;;;;;;7.80;5.20;;;;;;;-0.10;65.82;100155.19;108475;1280;138349;-63
2022/03/06 08:08:50;;;;;;;8.30;4.80;;;;;;;-0.03;65.63;100153.34;108695;1280;22564;-63
2022/03/06 08:11:45;;;;;;;11.10;5.30;;;;;;;0.05;65.65;100149.73;108815;1279;139261;-63
2022/03/06 08:14:21;;;;;;;6.20;4.10;;;;;;;0.13;65.93;100145.83;108861;1281;23508;-63
2022/03/06 08:16:55;;;;;;;6.00;4.00;;;;;;;0.20;65.72;100150.36;108230;1281;22404;-63
2022/03/06 08:19:32;;;;;;;6.60;4.30;;;;;;;0.25;65.79;100144.17;108719;1280;138885;-61
2022/03/06 08:22:12;;;;;;;8.80;5.00;;;;;;;0.31;65.32;100138.51;108520;1281;22541;-61
2022/03/06 08:24:47;;;;;;;7.20;4.90;;;;;;;0.37;65.50;100139.23;108542;1279;137454;-62
2022/03/06 08:27:28;;;;;;;6.70;4.30;;;;;;;0.42;65.09;100142.68;109009;1278;22439;-62
2022/03/06 08:30:05;;;;;;;6.00;4.40;;;;;;;0.43;65.16;100141.42;108853;1279;137516;-62
2022/03/06 08:32:45;;;;;;;7.70;5.50;;;;;;;0.45;65.03;100138.59;108529;1280;22508;-62
2022/03/06 08:35:20;;;;;;;11.20;5.50;;;;;;;0.44;64.77;100139.70;108780;1279;139212;-62
2022/03/06 08:37:53;;;;;;;9.70;4.90;;;;;;;0.44;64.90;100136.88;108986;1279;22900;-62
2022/03/06 08:40:31;;;;;;;10.00;5.70;;;;;;;0.44;65.15;100139.02;108945;1279;23292;-62
2022/03/06 08:43:06;;;;;;;24.10;11.70;;;;;;;0.45;65.48;100140.12;108837;1280;137504;-62
2022/03/06 08:45:50;;;;;;;15.80;8.40;;;;;;;0.46;65.76;100138.24;108995;1278;22487;-62
2022/03/06 08:48:23;;;;;;;12.20;7.40;;;;;;;0.48;65.67;100139.10;108898;1278;139145;-62
2022/03/06 08:50:59;;;;;;;10.90;6.20;;;;;;;0.47;65.69;100136.90;108925;1279;22541;-62
2022/03/06 08:53:39;;;;;;;8.70;5.30;;;;;;;0.44;65.56;100140.23;108891;1277;137843;-62
2022/03/06 08:56:11;;;;;;;10.10;6.40;;;;;;;0.33;65.83;100139.20;109141;1277;22448;-62
2022/03/06 08:58:46;;;;;;;9.50;5.70;;;;;;;0.25;66.11;100136.34;108685;1278;22487;-62
2022/03/06 09:01:26;;;;;;;11.10;6.40;;;;;;;0.21;66.14;100138.64;108785;1279;137069;-62
2022/03/06 09:04:07;;;;;;;15.10;6.40;;;;;;;0.19;66.36;100139.55;108988;1279;23219;-62
2022/03/06 09:06:41;;;;;;;13.00;6.40;;;;;;;0.23;66.79;100135.85;108716;1277;137453;-62
2022/03/06 09:09:14;;;;;;;;;;;;;;;0.30;67.18;100132.52;108868;1277;22530;-62
2022/03/06 09:11:46;;;;;;;20.30;10.70;;;;;;;0.37;66.78;100130.13;108566;1278;123837;-62
2022/03/06 09:14:21;;;;;;;17.20;9.10;;;;;;;0.42;66.16;100125.31;108664;1278;22497;-61
2022/03/06 09:17:08;;;;;;;18.50;8.90;;;;;;;0.51;66.35;100124.98;108999;1277;23061;-62
2022/03/06 09:19:39;;;;;;;21.50;11.60;;;;;;;0.59;66.20;100124.05;108712;1277;137453;-62
2022/03/06 09:22:14;;;;;;;12.40;7.40;;;;;;;0.66;66.16;100124.03;109141;1277;22502;-62
2022/03/06 09:24:52;;;;;;;13.10;8.40;;;;;;;0.74;65.93;100125.48;109004;1277;137345;-63
2022/03/06 09:27:24;;;;;;;13.60;7.90;;;;;;;0.78;65.69;100124.02;108634;1277;22493;-62
2022/03/06 09:30:06;;;;;;;10.60;6.80;;;;;;;0.82;65.18;100126.28;108989;1277;137559;-62
2022/03/06 09:33:00;;;;;;;10.60;6.70;;;;;;;0.87;65.07;100123.71;108918;1279;22523;-62
2022/03/06 09:35:45;;;;;;;13.90;7.70;;;;;;;0.94;64.87;100121.69;108327;1278;138438;-62
2022/03/06 09:38:21;;;;;;;11.40;7.00;;;;;;;0.99;64.81;100121.21;108936;1277;22645;-63
2022/03/06 09:41:17;;;;;;;17.30;9.20;;;;;;;1.04;64.57;100119.16;108428;1279;22401;-62
2022/03/06 09:44:02;;;;;;;12.80;7.60;;;;;;;1.08;63.98;100116.67;108527;1279;138903;-63
2022/03/06 09:46:42;;;;;;;15.20;7.00;;;;;;;1.11;63.39;100117.38;108924;1277;23619;-63
2022/03/06 09:49:18;;;;;;;18.20;7.70;;;;;;;1.13;63.05;100118.33;108970;1277;137697;-67
2022/03/06 09:52:01;;;;;;;18.70;10.30;;;;;;;1.18;63.38;100117.16;108971;1278;22462;-63
2022/03/06 09:54:43;;;;;;;16.40;7.60;;;;;;;1.23;62.88;100115.10;108880;1277;138749;-62
2022/03/06 09:57:27;;;;;;;13.70;8.40;;;;;;;1.25;62.34;100111.30;109151;1277;23485;-62
2022/03/06 10:00:00;;;;;;;24.80;11.90;;;;;;;1.22;62.02;100109.14;108722;1278;137564;-62
2022/03/06 10:03:00;;;;;;;15.90;8.20;;;;;;;1.24;61.84;100111.07;109110;1277;23406;-63
2022/03/06 10:05:36;;;;;;;13.40;7.40;;;;;;;1.24;61.51;100104.80;109047;1277;139209;-62
2022/03/06 10:08:30;;;;;;;20.20;8.30;;;;;;;1.26;61.66;100106.16;108720;1281;23655;-63
2022/03/06 10:11:16;;;;;;;14.10;8.00;;;;;;;1.32;61.48;100101.48;108913;1280;23451;-63
2022/03/06 10:13:50;;;;;;;14.00;7.10;;;;;;;1.35;60.68;100099.75;108762;1277;138157;-62
2022/03/06 10:16:35;;;;;;;17.90;8.10;;;;;;;1.36;60.15;100097.08;109148;1277;22417;-62
2022/03/06 10:19:52;;;;;;;19.50;7.10;;;;;;;1.39;59.94;100091.34;108832;1277;139112;-63
2022/03/06 10:22:38;;;;;;;12.40;6.20;;;;;;;1.44;59.39;100093.48;109098;1277;23265;-63
2022/03/06 10:25:10;;;;;;;23.00;10.30;;;;;;;1.44;58.88;100096.41;108857;1277;138453;-61
2022/03/06 10:27:57;;;;;;;17.80;7.40;;;;;;;1.44;58.73;100091.38;108939;1279;23147;-61
2022/03/06 10:30:30;;;;;;;32.70;12.40;;;;;;;1.41;57.91;100087.20;108605;1277;139200;-62
2022/03/06 10:33:27;;;;;;;20.70;8.70;;;;;;;1.38;58.08;100084.85;108693;1277;22398;-61
2022/03/06 10:35:58;;;;;;;18.90;8.40;;;;;;;1.39;58.08;100078.83;108891;1279;137889;-62
2022/03/06 10:38:35;;;;;;;16.30;8.30;;;;;;;1.41;57.88;100079.61;108732;1277;22470;-62
2022/03/06 10:41:17;;;;;;;10.90;6.80;;;;;;;1.42;57.49;100075.31;108995;1277;22425;-61
2022/03/06 10:43:49;;;;;;;16.80;9.00;;;;;;;1.44;57.13;100076.17;109061;1277;137634;-62
2022/03/06 10:46:25;;;;;;;21.20;9.70;;;;;;;1.43;56.37;100075.22;108878;1279;22548;-63
2022/03/06 10:48:59;;;;;;;16.80;8.40;;;;;;;1.42;54.98;100079.61;108868;1277;137309;-63
2022/03/06 10:51:32;;;;;;;27.60;10.30;;;;;;;1.39;54.57;100071.18;108816;1277;22764;-63
2022/03/06 10:54:08;;;;;;;13.20;6.40;;;;;;;1.34;54.72;100074.62;108760;1277;137970;-61
2022/03/06 10:56:49;;;;;;;8.60;5.40;;;;;;;1.33;55.41;100070.56;109137;1277;23404;-62
2022/03/06 10:59:34;;;;;;;11.40;5.60;;;;;;;1.34;55.90;100062.27;109080;1277;138365;-62
2022/03/06 11:02:12;;;;;;;9.10;5.20;;;;;;;1.36;56.03;100060.98;108985;1277;23522;-62
2022/03/06 11:04:56;;;;;;;7.40;5.00;;;;;;;1.37;56.01;100056.46;108986;1277;22575;-62
2022/03/06 11:07:39;;;;;;;10.40;5.90;;;;;;;1.40;56.12;100058.52;109049;1277;138454;-62
2022/03/06 11:10:12;;;;;;;16.40;8.80;;;;;;;1.42;55.72;100059.38;108969;1277;23006;-62
2022/03/06 11:12:57;;;;;;;17.30;8.30;;;;;;;1.39;54.98;100058.77;108962;1277;137348;-62
2022/03/06 11:15:30;;;;;;;15.60;7.70;;;;;;;1.35;55.35;100056.39;109169;1277;22462;-63
2022/03/06 11:18:26;;;;;;;12.70;7.20;;;;;;;1.35;55.34;100056.18;109195;1275;137674;-63
2022/03/06 11:21:30;;;;;;;12.70;7.30;;;;;;;1.35;54.86;100053.73;109111;1276;22297;-63
2022/03/06 11:24:00;;;;;;;37.30;18.30;;;;;;;1.31;55.03;100055.59;108841;1277;138055;-63
2022/03/06 11:26:47;;;;;;;21.90;12.50;;;;;;;1.25;55.11;100054.23;108846;1277;22469;-63
2022/03/06 11:29:33;;;;;;;19.70;9.30;;;;;;;1.20;55.06;100051.16;108773;1277;22715;-63
2022/03/06 11:32:07;;;;;;;16.30;8.40;;;;;;;1.19;55.34;100050.70;108775;1278;137621;-63
2022/03/06 11:34:42;;;;;;;16.00;8.90;;;;;;;1.21;55.47;100044.33;109047;1277;22469;-61
2022/03/06 11:37:44;;;;;;;15.10;8.40;;;;;;;1.24;55.35;100043.23;109035;1277;137370;-63
2022/03/06 11:40:37;;;;;;;15.40;9.50;;;;;;;1.27;54.77;100045.21;109096;1277;22541;-63
2022/03/06 11:43:35;;;;;;;22.50;10.90;;;;;;;1.28;54.19;100046.76;108702;1277;137268;-63
2022/03/06 11:46:34;;;;;;;19.90;9.50;;;;;;;1.27;54.27;100045.02;109115;1277;23646;-63
2022/03/06 11:49:17;;;;;;;16.80;10.10;;;;;;;1.28;54.34;100035.09;108867;1277;138569;-63